createdAt,value
2022-10-21T00:01:32.259Z,35.70
2022-10-21T00:04:03.337Z,36.28
2022-10-21T00:06:31.578Z,36.75
2022-10-21T00:08:58.658Z,37.60
2022-10-21T00:11:25.342Z,37.05
2022-10-21T00:13:51.996Z,34.63
2022-10-21T00:16:19.453Z,36.33
2022-10-21T00:18:50.571Z,28.35
2022-10-21T00:21:21.024Z,27.40
2022-10-21T00:23:49.456Z,27.48
2022-10-21T00:26:18.667Z,29.23
2022-10-21T00:28:45.679Z,30.30
2022-10-21T00:31:16.973Z,28.30
2022-10-21T00:33:43.627Z,29.02
2022-10-21T00:36:11.649Z,27.90
2022-10-21T00:38:38.270Z,29.33
2022-10-21T00:41:06.510Z,29.25
2022-10-21T00:43:48.195Z,30.65
2022-10-21T00:46:14.848Z,32.35
2022-10-21T00:48:48.091Z,31.52
2022-10-21T00:51:19.610Z,33.75
2022-10-21T00:53:49.129Z,34.50
2022-10-21T00:58:49.016Z,32.75
2022-10-21T01:01:19.191Z,33.42
2022-10-21T01:03:49.119Z,34.70
2022-10-21T01:06:16.888Z,35.08
2022-10-21T01:08:43.757Z,34.80
2022-10-21T01:11:14.482Z,34.53
2022-10-21T01:13:53.634Z,35.70
2022-10-21T01:16:25.052Z,37.65
2022-10-21T01:19:01.204Z,39.63
2022-10-21T01:21:38.584Z,37.85
2022-10-21T01:24:44.410Z,38.63
2022-10-21T01:27:25.286Z,37.53
2022-10-21T01:30:14.218Z,35.20
2022-10-21T01:33:16.834Z,38.03
2022-10-21T01:35:49.112Z,34.70
2022-10-21T01:38:24.279Z,33.90
2022-10-21T01:40:57.307Z,35.47
2022-10-21T01:43:33.730Z,34.47
2022-10-21T01:46:04.298Z,32.90
2022-10-21T01:48:37.162Z,33.70
2022-10-21T01:51:07.666Z,32.28
2022-10-21T01:53:44.716Z,33.47
2022-10-21T01:56:13.409Z,33.28
2022-10-21T01:58:42.960Z,33.80
2022-10-21T02:03:46.056Z,31.77
2022-10-21T02:06:12.796Z,30.67
2022-10-21T02:08:39.823Z,31.20
2022-10-21T02:11:08.993Z,29.83
2022-10-21T02:13:41.612Z,29.92
2022-10-21T02:16:11.069Z,29.02
2022-10-21T02:18:39.346Z,29.45
2022-10-21T02:21:10.256Z,28.85
2022-10-21T02:23:42.209Z,28.33
2022-10-21T02:26:09.097Z,28.00
2022-10-21T02:28:36.168Z,28.67
2022-10-21T02:31:18.662Z,28.40
2022-10-21T02:33:55.678Z,28.45
2022-10-21T02:36:35.571Z,27.13
2022-10-21T02:39:09.225Z,26.90
2022-10-21T02:41:38.357Z,26.77
2022-10-21T02:44:05.691Z,26.30
2022-10-21T02:46:38.261Z,26.83
2022-10-21T02:49:06.337Z,26.50
2022-10-21T02:51:34.564Z,26.73
2022-10-21T02:54:01.273Z,26.02
2022-10-21T02:56:31.106Z,23.17
2022-10-21T02:58:57.890Z,24.55
2022-10-21T03:01:24.749Z,23.38
2022-10-21T03:03:51.625Z,24.80
2022-10-21T03:06:19.684Z,24.95
2022-10-21T03:08:46.472Z,25.77
2022-10-21T03:11:13.199Z,25.02
2022-10-21T03:13:40.039Z,24.13
2022-10-21T03:16:07.688Z,23.05
2022-10-21T03:18:34.384Z,24.90
2022-10-21T03:21:01.072Z,25.10
2022-10-21T03:23:29.175Z,24.80
2022-10-21T03:25:55.805Z,25.92
2022-10-21T03:28:22.531Z,25.42
2022-10-21T03:30:49.179Z,24.00
2022-10-21T03:33:15.811Z,25.65
2022-10-21T03:35:42.434Z,25.63
2022-10-21T03:38:09.132Z,24.73
2022-10-21T03:40:37.222Z,25.88
2022-10-21T03:43:03.891Z,25.15
2022-10-21T03:45:30.765Z,26.58
2022-10-21T03:47:57.361Z,26.80
2022-10-21T03:50:26.525Z,27.58
2022-10-21T03:52:54.351Z,26.88
2022-10-21T03:55:21.290Z,27.33
2022-10-21T03:57:49.651Z,28.55
2022-10-21T04:00:17.094Z,27.55
2022-10-21T04:02:43.870Z,27.45
2022-10-21T04:05:11.079Z,27.95
2022-10-21T04:07:39.540Z,27.17
2022-10-21T04:10:08.085Z,27.70
2022-10-21T04:12:37.506Z,29.27
2022-10-21T04:17:32.831Z,28.23
2022-10-21T04:19:59.463Z,28.75
2022-10-21T04:22:26.177Z,29.05
2022-10-21T04:24:52.849Z,28.77
2022-10-21T04:27:19.540Z,28.60
2022-10-21T04:29:46.185Z,26.58
2022-10-21T04:32:14.347Z,28.83
2022-10-21T04:34:41.000Z,27.15
2022-10-21T04:37:10.342Z,27.52
2022-10-21T04:39:37.247Z,26.50
2022-10-21T04:42:03.993Z,26.90
2022-10-21T04:44:30.740Z,26.85
2022-10-21T04:46:57.358Z,27.83
2022-10-21T04:49:25.333Z,27.45
2022-10-21T04:51:52.117Z,27.48
2022-10-21T04:54:18.800Z,27.73
2022-10-21T04:56:45.485Z,28.20
2022-10-21T04:59:12.103Z,29.50
2022-10-21T05:01:38.753Z,28.98
2022-10-21T05:04:05.606Z,29.17
2022-10-21T05:06:33.677Z,28.63
2022-10-21T05:09:00.365Z,29.27
2022-10-21T05:11:27.388Z,29.33
2022-10-21T05:13:54.022Z,27.92
2022-10-21T05:16:20.653Z,28.55
2022-10-21T05:18:47.339Z,28.63
2022-10-21T05:21:14.052Z,28.35
2022-10-21T05:23:42.120Z,28.20
2022-10-21T05:26:08.788Z,29.23
2022-10-21T05:28:36.033Z,28.88
2022-10-21T05:31:02.964Z,27.23
2022-10-21T05:33:29.628Z,29.20
2022-10-21T05:35:57.532Z,28.17
2022-10-21T05:38:24.263Z,27.00
2022-10-21T05:40:52.337Z,27.92
2022-10-21T05:43:19.006Z,27.25
2022-10-21T05:45:45.711Z,25.83
2022-10-21T05:48:17.684Z,27.35
2022-10-21T05:50:44.945Z,26.80
2022-10-21T05:53:11.562Z,26.27
2022-10-21T05:55:38.184Z,26.30
2022-10-21T05:58:06.266Z,27.40
2022-10-21T06:00:33.263Z,26.40
2022-10-21T06:02:59.879Z,27.55
2022-10-21T06:05:26.739Z,27.08
2022-10-21T06:07:53.448Z,28.63
2022-10-21T06:10:20.092Z,28.95
2022-10-21T06:12:46.718Z,27.85
2022-10-21T06:15:14.762Z,27.30
2022-10-21T06:17:41.505Z,27.60
2022-10-21T06:20:09.028Z,27.77
2022-10-21T06:22:35.669Z,29.05
2022-10-21T06:25:02.283Z,27.00
2022-10-21T06:27:28.986Z,29.63
2022-10-21T06:29:55.617Z,28.90
2022-10-21T06:32:23.623Z,30.17
2022-10-21T06:34:50.308Z,29.23
2022-10-21T06:37:17.040Z,29.90
2022-10-21T06:39:43.650Z,28.63
2022-10-21T06:42:10.290Z,29.45
2022-10-21T06:44:36.944Z,31.38
2022-10-21T06:47:03.545Z,30.52
2022-10-21T06:49:31.737Z,30.90
2022-10-21T06:51:58.380Z,30.20
2022-10-21T06:54:25.125Z,30.60
2022-10-21T06:56:52.063Z,28.50
2022-10-21T06:59:18.673Z,28.17
2022-10-21T07:01:59.578Z,29.70
2022-10-21T07:04:27.310Z,29.88
2022-10-21T07:06:55.569Z,30.30
2022-10-21T07:09:22.344Z,29.77
2022-10-21T07:11:49.045Z,28.83
2022-10-21T07:14:15.656Z,28.95
2022-10-21T07:16:42.691Z,29.17
2022-10-21T07:19:19.865Z,30.60
2022-10-21T07:21:56.344Z,30.27
2022-10-21T07:24:24.546Z,29.10
2022-10-21T07:26:51.654Z,31.98
2022-10-21T07:29:19.038Z,31.45
2022-10-21T07:31:46.003Z,32.85
2022-10-21T07:34:15.689Z,31.05
2022-10-21T07:36:50.371Z,31.15
2022-10-21T07:39:19.282Z,31.70
2022-10-21T07:41:50.969Z,31.33
2022-10-21T07:44:19.334Z,31.55
2022-10-21T07:46:50.106Z,33.03
2022-10-21T07:49:22.474Z,31.10
2022-10-21T07:51:50.759Z,32.58
2022-10-21T07:54:23.811Z,32.50
2022-10-21T07:56:52.431Z,33.75
2022-10-21T07:59:29.176Z,35.53
2022-10-21T08:02:00.939Z,35.88
2022-10-21T08:04:35.265Z,35.65
2022-10-21T08:07:04.447Z,40.47
2022-10-21T08:09:31.213Z,38.15
2022-10-21T08:11:59.722Z,40.67
2022-10-21T08:14:26.516Z,43.83
2022-10-21T08:16:56.815Z,42.45
2022-10-21T08:19:29.267Z,40.85
2022-10-21T08:21:57.168Z,38.05
2022-10-21T08:24:24.364Z,37.33
2022-10-21T08:26:54.650Z,37.20
2022-10-21T08:29:27.668Z,37.05
2022-10-21T08:31:59.037Z,35.72
2022-10-21T08:34:26.081Z,34.92
2022-10-21T08:37:05.355Z,33.92
2022-10-21T08:39:32.117Z,32.65
2022-10-21T08:42:07.787Z,34.92
2022-10-21T08:44:43.033Z,33.78
2022-10-21T08:47:21.462Z,34.45
2022-10-21T08:50:20.481Z,34.95
2022-10-21T08:52:57.913Z,34.55
2022-10-21T08:55:32.947Z,32.45
2022-10-21T08:58:02.066Z,31.05
2022-10-21T09:00:34.168Z,31.15
2022-10-21T09:03:18.391Z,30.17
2022-10-21T09:06:09.306Z,29.35
2022-10-21T09:08:52.534Z,29.20
2022-10-21T09:11:34.695Z,29.25
2022-10-21T09:14:32.983Z,29.08
2022-10-21T09:17:12.208Z,28.05
2022-10-21T09:19:58.646Z,28.08
2022-10-21T09:23:02.240Z,26.05
2022-10-21T09:25:42.745Z,24.33
2022-10-21T09:28:12.896Z,23.77
2022-10-21T09:30:40.679Z,23.02
2022-10-21T09:33:16.035Z,24.35
2022-10-21T09:35:46.876Z,23.52
2022-10-21T09:38:17.958Z,24.08
2022-10-21T09:40:49.325Z,22.73
2022-10-21T09:43:25.053Z,21.50
2022-10-21T09:45:52.048Z,22.38
2022-10-21T09:48:29.244Z,21.45
2022-10-21T09:51:00.975Z,21.88
2022-10-21T09:53:33.058Z,20.83
2022-10-21T09:56:03.404Z,20.52
2022-10-21T09:58:45.290Z,20.95
2022-10-21T10:01:16.618Z,20.00
2022-10-21T10:03:46.915Z,19.63
2022-10-21T10:06:32.068Z,18.98
2022-10-21T10:09:07.762Z,19.20
2022-10-21T10:11:34.456Z,17.48
2022-10-21T10:14:23.140Z,17.15
2022-10-21T10:16:50.025Z,17.40
2022-10-21T10:19:19.781Z,16.77
2022-10-21T10:22:10.071Z,17.55
2022-10-21T10:24:37.699Z,16.52
2022-10-21T10:27:05.372Z,16.60
2022-10-21T10:29:33.011Z,15.93
2022-10-21T10:32:02.117Z,16.80
2022-10-21T10:34:34.344Z,15.93
2022-10-21T10:37:04.981Z,15.10
2022-10-21T10:39:34.635Z,15.10
2022-10-21T10:42:02.696Z,15.88
2022-10-21T10:44:33.870Z,14.82
2022-10-21T10:47:02.731Z,14.38
2022-10-21T10:49:38.252Z,14.00
2022-10-21T10:52:14.259Z,14.18
2022-10-21T10:54:42.287Z,13.35
2022-10-21T10:57:15.672Z,13.47
2022-10-21T10:59:44.356Z,13.30
2022-10-21T11:02:34.649Z,13.40
2022-10-21T11:05:15.308Z,12.20
2022-10-21T11:07:46.213Z,12.48
2022-10-21T11:10:33.147Z,13.45
2022-10-21T11:13:04.334Z,13.48
2022-10-21T11:15:43.622Z,12.73
2022-10-21T11:21:05.542Z,11.60
2022-10-21T11:23:54.263Z,12.07
2022-10-21T11:26:33.616Z,12.40
2022-10-21T11:29:16.935Z,11.48
2022-10-21T11:32:10.759Z,11.82
2022-10-21T11:34:53.273Z,12.13
2022-10-21T11:37:33.080Z,11.52
2022-10-21T11:40:07.706Z,11.38
2022-10-21T11:42:41.530Z,10.65
2022-10-21T11:45:33.269Z,10.43
2022-10-21T11:48:14.123Z,10.65
2022-10-21T11:50:49.729Z,11.38
2022-10-21T11:53:31.866Z,10.82
2022-10-21T11:56:10.191Z,9.63
2022-10-21T11:58:48.302Z,10.15
2022-10-21T12:01:25.894Z,9.68
2022-10-21T12:04:22.290Z,8.40
2022-10-21T12:07:07.676Z,8.05
2022-10-21T12:09:43.836Z,8.23
2022-10-21T12:12:13.957Z,6.72
2022-10-21T12:14:43.711Z,5.95
2022-10-21T12:17:15.817Z,5.85
2022-10-21T12:19:48.710Z,5.35
2022-10-21T12:22:15.669Z,5.63
2022-10-21T12:24:52.673Z,6.20
2022-10-21T12:27:26.930Z,6.50
2022-10-21T12:30:05.280Z,5.88
2022-10-21T12:32:40.552Z,6.10
2022-10-21T12:35:12.805Z,5.97
2022-10-21T12:37:58.159Z,6.22
2022-10-21T12:40:37.453Z,5.40
2022-10-21T12:45:35.119Z,5.07
2022-10-21T12:48:07.905Z,5.30
2022-10-21T12:50:35.059Z,4.80
2022-10-21T12:53:14.672Z,4.97
2022-10-21T12:55:50.271Z,5.22
2022-10-21T12:58:30.587Z,5.15
2022-10-21T13:00:58.865Z,5.10
2022-10-21T13:03:49.507Z,5.15
2022-10-21T13:06:16.424Z,5.03
2022-10-21T13:08:53.267Z,5.10
2022-10-21T13:11:23.976Z,4.80
2022-10-21T13:14:24.166Z,5.32
2022-10-21T13:16:50.884Z,5.88
2022-10-21T13:19:33.867Z,5.22
2022-10-21T13:22:13.386Z,5.28
2022-10-21T13:24:41.953Z,5.45
2022-10-21T13:27:26.692Z,6.10
2022-10-21T13:30:00.467Z,7.00
2022-10-21T13:32:32.512Z,8.05
2022-10-21T13:35:22.377Z,9.57
2022-10-21T13:37:55.989Z,9.43
2022-10-21T13:40:28.995Z,10.15
2022-10-21T13:43:01.264Z,10.07
2022-10-21T13:45:30.776Z,10.05
2022-10-21T13:48:03.000Z,9.48
2022-10-21T13:50:32.811Z,8.30
2022-10-21T13:53:05.312Z,7.40
2022-10-21T13:55:31.937Z,6.72
2022-10-21T13:58:00.050Z,6.35
2022-10-21T14:00:29.593Z,6.63
2022-10-21T14:03:01.491Z,5.97
2022-10-21T14:05:34.863Z,7.05
2022-10-21T14:08:02.521Z,10.82
2022-10-21T14:10:30.098Z,10.05
2022-10-21T14:15:37.690Z,10.60
2022-10-21T14:18:05.054Z,11.30
2022-10-21T14:20:34.619Z,7.40
2022-10-21T14:23:04.085Z,7.13
2022-10-21T14:25:31.523Z,6.45
2022-10-21T14:28:00.388Z,7.05
2022-10-21T14:30:28.674Z,6.97
2022-10-21T14:33:04.520Z,7.20
2022-10-21T14:35:31.907Z,7.20
2022-10-21T14:38:00.643Z,7.57
2022-10-21T14:40:29.681Z,7.28
2022-10-21T14:42:56.526Z,8.45
2022-10-21T14:45:26.632Z,7.45
2022-10-21T14:47:58.842Z,9.00
2022-10-21T14:50:25.552Z,9.18
2022-10-21T14:52:53.352Z,8.80
2022-10-21T14:55:25.266Z,9.65
2022-10-21T14:57:53.644Z,9.27
2022-10-21T15:00:28.919Z,8.43
2022-10-21T15:02:59.713Z,8.23
2022-10-21T15:05:34.105Z,8.63
2022-10-21T15:08:27.655Z,7.68
2022-10-21T15:11:15.501Z,8.30
2022-10-21T15:13:55.659Z,8.63
2022-10-21T15:16:25.820Z,9.68
2022-10-21T15:18:54.442Z,9.95
2022-10-21T15:21:28.734Z,10.07
2022-10-21T15:23:57.648Z,9.48
2022-10-21T15:26:26.764Z,9.90
2022-10-21T15:28:54.619Z,8.85
2022-10-21T15:31:24.039Z,9.70
2022-10-21T15:36:19.777Z,9.48
2022-10-21T15:38:47.667Z,9.87
2022-10-21T15:41:17.122Z,10.00
2022-10-21T15:46:11.159Z,11.80
2022-10-21T15:48:37.864Z,13.43
2022-10-21T15:51:04.604Z,13.98
2022-10-21T15:53:32.634Z,13.40
2022-10-21T15:56:00.809Z,13.93
2022-10-21T15:58:27.481Z,13.45
2022-10-21T16:00:54.223Z,13.80
2022-10-21T16:03:20.811Z,13.13
2022-10-21T16:05:47.626Z,14.02
2022-10-21T16:08:14.260Z,14.23
2022-10-21T16:10:42.641Z,13.10
2022-10-21T16:13:09.341Z,13.68
2022-10-21T16:15:35.983Z,14.30
2022-10-21T16:18:02.611Z,11.93
2022-10-21T16:20:31.269Z,12.55
2022-10-21T16:23:01.975Z,10.32
2022-10-21T16:25:29.847Z,7.60
2022-10-21T16:27:57.981Z,6.55
2022-10-21T16:30:27.086Z,6.53
2022-10-21T16:32:54.103Z,6.93
2022-10-21T16:35:21.246Z,6.88
2022-10-21T16:37:48.778Z,7.80
2022-10-21T16:40:18.947Z,7.15
2022-10-21T16:42:45.637Z,5.85
2022-10-21T16:45:14.655Z,6.30
2022-10-21T16:47:42.679Z,6.60
2022-10-21T16:50:18.549Z,6.82
2022-10-21T16:52:45.201Z,6.22
2022-10-21T16:55:12.362Z,5.50
2022-10-21T16:57:39.340Z,6.05
2022-10-21T17:00:07.099Z,4.43
2022-10-21T17:02:40.146Z,5.07
2022-10-21T17:05:08.089Z,4.63
2022-10-21T17:07:34.783Z,4.18
2022-10-21T17:10:01.655Z,3.75
2022-10-21T17:12:28.707Z,3.53
2022-10-21T17:14:55.332Z,3.25
2022-10-21T17:17:21.948Z,3.58
2022-10-21T17:19:50.047Z,3.35
2022-10-21T17:22:16.936Z,4.05
2022-10-21T17:24:44.058Z,5.13
2022-10-21T17:27:11.979Z,5.60
2022-10-21T17:29:40.149Z,5.80
2022-10-21T17:32:06.971Z,5.78
2022-10-21T17:34:35.670Z,6.88
2022-10-21T17:37:03.740Z,6.95
2022-10-21T17:39:30.380Z,5.60
2022-10-21T17:41:57.097Z,5.82
2022-10-21T17:44:23.843Z,6.47
2022-10-21T17:46:50.863Z,6.85
2022-10-21T17:49:17.714Z,6.22
2022-10-21T17:51:44.338Z,6.22
2022-10-21T17:54:12.403Z,5.30
2022-10-21T17:56:39.096Z,5.80
2022-10-21T17:59:05.762Z,4.70
2022-10-21T18:01:32.530Z,4.75
2022-10-21T18:03:59.281Z,4.00
2022-10-21T18:06:26.570Z,4.25
2022-10-21T18:08:53.311Z,3.22
2022-10-21T18:11:21.493Z,3.80
2022-10-21T18:13:53.430Z,3.60
2022-10-21T18:16:23.281Z,3.70
2022-10-21T18:18:50.593Z,4.15
2022-10-21T18:21:20.510Z,4.20
2022-10-21T18:23:49.033Z,3.95
2022-10-21T18:26:17.759Z,4.60
2022-10-21T18:28:48.858Z,4.00
2022-10-21T18:31:15.817Z,3.75
2022-10-21T18:33:42.512Z,3.88
2022-10-21T18:36:10.630Z,3.47
2022-10-21T18:38:37.754Z,3.53
2022-10-21T18:41:18.874Z,3.72
2022-10-21T18:43:50.737Z,3.80
2022-10-21T18:46:17.929Z,3.70
2022-10-21T18:48:44.655Z,4.05
2022-10-21T18:51:12.661Z,4.10
2022-10-21T18:53:39.741Z,3.83
2022-10-21T18:56:08.127Z,3.60
2022-10-21T18:58:35.166Z,4.18
2022-10-21T19:01:03.667Z,4.38
2022-10-21T19:03:30.631Z,4.00
2022-10-21T19:05:57.283Z,3.70
2022-10-21T19:08:24.024Z,3.22
2022-10-21T19:10:50.690Z,3.60
2022-10-21T19:13:17.362Z,3.40
2022-10-21T19:15:44.057Z,3.85
2022-10-21T19:18:12.767Z,4.07
2022-10-21T19:20:39.475Z,4.30
2022-10-21T19:23:06.141Z,3.72
2022-10-21T19:25:32.811Z,3.90
2022-10-21T19:27:59.485Z,4.25
2022-10-21T19:30:26.209Z,4.50
2022-10-21T19:32:52.855Z,4.93
2022-10-21T19:35:20.905Z,5.53
2022-10-21T19:37:47.531Z,5.68
2022-10-21T19:40:14.411Z,5.97
2022-10-21T19:42:41.373Z,6.20
2022-10-21T19:45:09.698Z,6.65
2022-10-21T19:47:36.431Z,5.80
2022-10-21T19:50:03.220Z,6.15
2022-10-21T19:52:31.263Z,5.70
2022-10-21T19:54:57.936Z,5.75
2022-10-21T19:57:25.913Z,6.15
2022-10-21T19:59:52.587Z,5.90
2022-10-21T20:02:19.197Z,5.72
2022-10-21T20:04:46.166Z,6.03
2022-10-21T20:07:13.518Z,6.20
2022-10-21T20:09:41.802Z,6.47
2022-10-21T20:12:09.041Z,7.18
2022-10-21T20:14:35.762Z,5.78
2022-10-21T20:17:02.520Z,5.65
2022-10-21T20:19:29.177Z,5.90
2022-10-21T20:21:55.977Z,6.63
2022-10-21T20:24:24.224Z,6.60
2022-10-21T20:26:52.769Z,6.22
2022-10-21T20:29:19.653Z,5.13
2022-10-21T20:31:46.371Z,5.18
2022-10-21T20:34:13.242Z,5.35
2022-10-21T20:36:40.340Z,4.38
2022-10-21T20:39:07.073Z,3.97
2022-10-21T20:41:35.269Z,4.28
2022-10-21T20:44:05.398Z,5.10
2022-10-21T20:46:32.765Z,4.15
2022-10-21T20:48:59.586Z,4.70
2022-10-21T20:51:27.945Z,4.78
2022-10-21T20:53:56.158Z,5.47
2022-10-21T20:56:26.013Z,5.25
2022-10-21T20:58:52.685Z,5.97
2022-10-21T21:01:22.991Z,6.50
2022-10-21T21:03:50.887Z,7.78
2022-10-21T21:06:18.557Z,7.10
2022-10-21T21:08:53.376Z,6.88
2022-10-21T21:11:32.042Z,5.70
2022-10-21T21:13:58.918Z,5.47
2022-10-21T21:16:27.326Z,5.90
2022-10-21T21:18:56.147Z,6.40
2022-10-21T21:21:24.467Z,5.75
2022-10-21T21:23:51.663Z,6.10
2022-10-21T21:26:20.700Z,6.00
2022-10-21T21:28:49.188Z,5.75
2022-10-21T21:31:16.122Z,5.57
2022-10-21T21:33:44.433Z,5.63
2022-10-21T21:36:11.711Z,5.65
2022-10-21T21:38:38.734Z,5.38
2022-10-21T21:41:08.186Z,4.93
2022-10-21T21:43:37.665Z,4.95
2022-10-21T21:46:04.598Z,5.22
2022-10-21T21:48:32.049Z,4.53
2022-10-21T21:51:05.285Z,4.60
2022-10-21T21:53:31.961Z,4.13
2022-10-21T21:56:03.143Z,5.05
2022-10-21T21:58:30.770Z,3.70
2022-10-21T22:00:57.447Z,4.45
2022-10-21T22:03:24.110Z,4.25
2022-10-21T22:05:50.704Z,4.03
2022-10-21T22:08:18.710Z,3.78
2022-10-21T22:10:45.338Z,3.75
2022-10-21T22:13:11.987Z,4.07
2022-10-21T22:15:53.878Z,4.07
2022-10-21T22:18:20.573Z,4.13
2022-10-21T22:20:47.200Z,4.15
2022-10-21T22:23:13.767Z,4.50
2022-10-21T22:25:41.939Z,4.13
2022-10-21T22:28:08.578Z,4.47
2022-10-21T22:30:35.151Z,4.40
2022-10-21T22:33:01.946Z,4.47
2022-10-21T22:35:28.628Z,4.55
2022-10-21T22:37:55.263Z,4.22
2022-10-21T22:40:21.956Z,4.13
2022-10-21T22:42:49.988Z,4.40
2022-10-21T22:45:16.779Z,3.97
2022-10-21T22:47:43.588Z,4.20
2022-10-21T22:50:10.254Z,4.38
2022-10-21T22:52:36.997Z,3.80
2022-10-21T22:55:04.618Z,3.38
2022-10-21T22:57:31.200Z,3.20
2022-10-21T22:59:59.228Z,3.95
2022-10-21T23:02:25.900Z,3.60
2022-10-21T23:04:52.514Z,3.60
2022-10-21T23:07:19.107Z,3.55
2022-10-21T23:09:45.707Z,3.50
2022-10-21T23:12:12.325Z,3.45
2022-10-21T23:14:38.991Z,3.88
2022-10-21T23:17:07.080Z,4.07
2022-10-21T23:19:33.723Z,4.03
2022-10-21T23:22:00.349Z,3.80
2022-10-21T23:24:27.194Z,3.30
2022-10-21T23:26:57.607Z,3.63
2022-10-21T23:29:27.194Z,2.95
2022-10-21T23:31:53.796Z,3.40
2022-10-21T23:34:21.791Z,3.13
2022-10-21T23:36:48.469Z,3.95
2022-10-21T23:39:15.196Z,3.65
2022-10-21T23:41:41.772Z,3.60
2022-10-21T23:44:08.487Z,3.17
2022-10-21T23:46:35.096Z,3.25
2022-10-21T23:49:01.756Z,3.08
2022-10-21T23:51:30.000Z,2.83
2022-10-21T23:53:56.640Z,3.10
2022-10-21T23:56:23.236Z,3.10
2022-10-21T23:58:50.046Z,2.70
